Time;durP1;ratioP1;P1;durP2;ratioP2;P2;SDS_P1;SDS_P2;PMS_P1;PMS_P2;Temp;Humidity;BMP_temperature;BMP_pressure;BME280_temperature;BME280_humidity;BME280_pressure;Samples;Min_cycle;Max_cycle;Signal;HPM_P1;HPM_P2
2023/04/22 00:02:48;;;;;;;;;;;;;;;20.34;60.93;100873.69;2230144;80;51399;-73
2023/04/22 00:05:50;;;;;;;;;;;;;;;20.39;60.77;100868.58;2186111;78;52407;-75
2023/04/22 00:08:54;;;;;;;;;;;;;;;20.40;60.70;100860.86;2230179;80;51411;-73
2023/04/22 00:11:56;;;;;;;;;;;;;;;20.40;60.61;100847.42;2164749;81;52409;-74
2023/04/22 00:14:58;;;;;;;;;;;;;;;20.41;60.61;100847.21;2172276;79;51537;-74
2023/04/22 00:18:00;;;;;;;;;;;;;;;20.38;60.64;100840.05;2182280;79;51184;-77
2023/04/22 00:21:01;;;;;;;;;;;;;;;20.36;60.73;100838.06;2235752;79;50644;-77
2023/04/22 00:24:03;;;;;;;;;;;;;;;20.33;60.90;100837.11;2235218;79;50614;-76
2023/04/22 00:27:05;;;;;;;;;;;;;;;20.28;61.07;100832.81;2228771;79;50116;-78
2023/04/22 00:30:07;;;;;;;;;;;;;;;20.30;61.13;100830.77;2195451;79;51180;-76
2023/04/22 00:33:08;;;;;;;;;;;;;;;20.31;61.30;100829.22;2209871;79;50453;-79
2023/04/22 00:36:10;;;;;;;;;;;;;;;20.36;61.04;100828.66;2235122;79;50642;-75
2023/04/22 00:39:12;;;;;;;;;;;;;;;20.40;60.87;100824.06;2209973;79;50230;-78
2023/04/22 00:42:14;;;;;;;;;;;;;;;20.31;59.68;100823.84;2206298;79;52515;-77
2023/04/22 00:45:20;;;;;;;;;;;;;;;20.23;56.49;100818.08;2234902;79;51693;-77
2023/04/22 00:48:19;;;;;;;;;;;;;;;20.23;56.47;100814.05;2240782;78;22675;-76
2023/04/22 00:51:20;;;;;;;;;;;;;;;20.23;56.64;100819.94;2267133;78;51456;-76
2023/04/22 00:54:22;;;;;;;;;;;;;;;20.20;57.03;100810.40;2245844;78;50249;-77
2023/04/22 00:57:24;;;;;;;;;;;;;;;20.22;57.29;100816.94;2230693;78;50202;-76
2023/04/22 01:00:26;;;;;;;;;;;;;;;20.25;57.38;100810.36;2252494;78;50578;-77
2023/04/22 01:03:29;;;;;;;;;;;;;;;20.37;57.40;100810.15;2289152;77;50035;-77
2023/04/22 01:06:31;;;;;;;;;;;;;;;20.43;57.36;100812.09;2256138;77;51734;-76
2023/04/22 01:09:32;;;;;;;;;;;;;;;20.50;57.28;100805.42;2219711;78;50390;-77
2023/04/22 01:12:34;;;;;;;;;;;;;;;20.54;57.28;100806.72;2297227;76;50776;-76
2023/04/22 01:15:36;;;;;;;;;;;;;;;20.54;57.32;100804.88;2256022;77;50642;-76
2023/04/22 01:18:37;;;;;;;;;;;;;;;20.53;57.40;100802.38;2239727;78;52544;-75
2023/04/22 01:21:39;;;;;;;;;;;;;;;20.53;57.49;100808.58;2264768;78;52200;-78
2023/04/22 01:24:41;;;;;;;;;;;;;;;20.49;57.59;100803.25;2288746;77;50258;-76
2023/04/22 01:27:43;;;;;;;;;;;;;;;20.47;57.69;100801.78;2249401;78;50485;-76
2023/04/22 01:30:44;;;;;;;;;;;;;;;20.45;57.73;100800.65;2224425;79;51204;-76
2023/04/22 01:33:47;;;;;;;;;;;;;;;20.43;57.92;100796.80;2253857;78;50320;-76
2023/04/22 01:36:49;;;;;;;;;;;;;;;20.48;57.88;100798.09;2275181;77;51494;-75
2023/04/22 01:39:50;;;;;;;;;;;;;;;20.53;57.81;100800.52;2282812;76;51513;-76
2023/04/22 01:42:52;;;;;;;;;;;;;;;20.52;57.84;100799.34;2232399;78;52557;-76
2023/04/22 01:45:54;;;;;;;;;;;;;;;20.49;57.91;100792.50;2260771;77;51428;-77
2023/04/22 01:48:55;;;;;;;;;;;;;;;20.49;57.98;100791.67;2240658;78;51407;-77
2023/04/22 01:52:00;;;;;;;;;;;;;;;20.45;58.08;100785.34;2193339;80;51178;-77
2023/04/22 01:55:01;;;;;;;;;;;;;;;20.43;58.10;100789.25;2240459;79;50674;-76
2023/04/22 01:58:03;;;;;;;;;;;;;;;20.40;58.19;100782.40;2220385;78;51454;-78
2023/04/22 02:01:05;;;;;;;;;;;;;;;20.40;58.21;100785.09;2243213;78;50673;-78
2023/04/22 02:04:06;;;;;;;;;;;;;;;20.43;58.26;100783.88;2252447;78;50368;-76
2023/04/22 02:07:08;;;;;;;;;;;;;;;20.48;58.18;100773.38;2227934;78;51175;-75
2023/04/22 02:10:10;;;;;;;;;;;;;;;20.52;58.08;100774.64;2252575;78;50387;-77
2023/04/22 02:13:12;;;;;;;;;;;;;;;20.54;58.06;100771.28;2276595;78;51467;-77
2023/04/22 02:16:13;;;;;;;;;;;;;;;20.52;58.11;100763.06;2275677;78;50661;-76
2023/04/22 02:19:15;;;;;;;;;;;;;;;20.51;58.11;100759.55;2252244;78;49533;-75
2023/04/22 02:22:17;;;;;;;;;;;;;;;20.48;58.21;100757.25;2275927;78;50191;-75
2023/04/22 02:25:18;;;;;;;;;;;;;;;20.45;58.22;100750.41;2275731;78;51503;-76
2023/04/22 02:28:20;;;;;;;;;;;;;;;20.42;58.45;100747.25;2265107;78;51467;-77
2023/04/22 02:31:22;;;;;;;;;;;;;;;20.39;58.59;100754.36;2236865;78;52625;-76
2023/04/22 02:34:23;;;;;;;;;;;;;;;20.44;58.67;100747.89;2251934;78;51530;-76
2023/04/22 02:37:25;;;;;;;;;;;;;;;20.52;58.51;100748.27;2252387;78;51418;-77
2023/04/22 02:40:26;;;;;;;;;;;;;;;20.55;58.37;100744.73;2252613;78;50434;-76
2023/04/22 02:43:28;;;;;;;;;;;;;;;20.57;58.34;100739.97;2275783;78;50242;-77
2023/04/22 02:46:30;;;;;;;;;;;;;;;20.56;58.35;100735.63;2251447;78;50322;-76
2023/04/22 02:49:31;;;;;;;;;;;;;;;20.55;58.37;100735.81;2252459;78;50439;-76
2023/04/22 02:52:33;;;;;;;;;;;;;;;20.51;58.42;100735.35;2252208;78;49986;-77
2023/04/22 02:55:35;;;;;;;;;;;;;;;20.49;58.94;100731.20;2252662;78;52486;-77
2023/04/22 02:58:36;;;;;;;;;;;;;;;20.45;59.20;100736.97;2247418;78;50312;-76
2023/04/22 03:01:38;;;;;;;;;;;;;;;20.42;59.15;100728.44;2253084;77;50730;-75
2023/04/22 03:04:40;;;;;;;;;;;;;;;20.41;59.19;100734.84;2263395;78;50200;-76
2023/04/22 03:07:42;;;;;;;;;;;;;;;20.46;59.25;100737.79;2213169;78;52475;-76
2023/04/22 03:10:43;;;;;;;;;;;;;;;20.53;58.92;100737.34;2238616;78;51512;-76
2023/04/22 03:13:45;;;;;;;;;;;;;;;20.55;58.79;100735.33;2262080;78;51414;-74
2023/04/22 03:16:46;;;;;;;;;;;;;;;20.57;58.75;100737.80;2260116;78;50807;-75
2023/04/22 03:19:48;;;;;;;;;;;;;;;20.56;58.70;100728.09;2214563;78;51755;-77
2023/04/22 03:22:50;;;;;;;;;;;;;;;20.53;58.74;100733.31;2238569;78;51424;-76
2023/04/22 03:25:51;;;;;;;;;;;;;;;20.51;58.77;100727.29;2258111;78;50306;-77
2023/04/22 03:28:53;;;;;;;;;;;;;;;20.49;58.81;100725.81;2240929;78;50636;-77
2023/04/22 03:31:54;;;;;;;;;;;;;;;20.45;58.81;100725.39;2234906;78;50613;-76
2023/04/22 03:34:56;;;;;;;;;;;;;;;20.45;58.84;100733.45;2258435;78;50641;-78
2023/04/22 03:37:57;;;;;;;;;;;;;;;20.49;58.85;100728.51;2260820;78;52402;-77
2023/04/22 03:40:59;;;;;;;;;;;;;;;20.55;58.63;100731.30;2227505;78;50616;-77
2023/04/22 03:44:01;;;;;;;;;;;;;;;20.58;58.52;100725.53;2215811;79;51500;-77
2023/04/22 03:47:02;;;;;;;;;;;;;;;20.58;58.48;100732.25;2238264;78;51468;-77
2023/04/22 03:50:04;;;;;;;;;;;;;;;20.56;58.55;100727.57;2216024;79;51484;-76
2023/04/22 03:53:06;;;;;;;;;;;;;;;20.54;58.59;100734.13;2276205;78;51563;-76
2023/04/22 03:56:08;;;;;;;;;;;;;;;20.50;58.61;100726.13;2252063;78;52427;-76
2023/04/22 03:59:09;;;;;;;;;;;;;;;20.48;58.64;100726.34;2276062;78;51594;-76
2023/04/22 04:02:11;;;;;;;;;;;;;;;20.44;58.71;100731.77;2275944;78;51458;-76
2023/04/22 04:05:12;;;;;;;;;;;;;;;20.42;58.92;100727.95;2251890;78;51899;-75
2023/04/22 04:08:14;;;;;;;;;;;;;;;20.49;58.75;100733.36;2211608;78;52317;-77
2023/04/22 04:11:16;;;;;;;;;;;;;;;20.54;58.52;100732.79;2258398;78;51571;-77
2023/04/22 04:14:17;;;;;;;;;;;;;;;20.58;58.52;100728.21;2252116;78;51395;-76
2023/04/22 04:17:20;;;;;;;;;;;;;;;20.61;58.43;100735.06;2275755;78;51504;-76
2023/04/22 04:20:22;;;;;;;;;;;;;;;20.59;58.37;100737.11;2252440;78;51626;-75
2023/04/22 04:23:23;;;;;;;;;;;;;;;20.59;58.44;100729.04;2252407;78;52448;-76
2023/04/22 04:26:26;;;;;;;;;;;;;;;20.57;58.67;100738.63;2252224;78;50296;-77
2023/04/22 04:29:28;;;;;;;;;;;;;;;20.55;58.72;100733.13;2252428;78;51703;-74
2023/04/22 04:32:33;;;;;;;;;;;;;;;20.48;58.89;100730.38;2252146;78;52429;-74
2023/04/22 04:35:40;;;;;;;;;;;;;;;20.48;58.75;100728.20;2252072;78;22340;-75
2023/04/22 04:38:42;;;;;;;;;;;;;;;20.51;58.69;100728.63;2237389;79;51529;-75
2023/04/22 04:41:44;;;;;;;;;;;;;;;20.55;58.60;100729.95;2228535;79;51424;-77
2023/04/22 04:44:47;;;;;;;;;;;;;;;20.57;58.68;100731.91;2240617;78;50736;-76
2023/04/22 04:47:54;;;;;;;;;;;;;;;20.55;58.80;100735.33;2241044;78;23066;-77
2023/04/22 04:50:57;;;;;;;;;;;;;;;20.54;59.13;100731.45;2236185;78;50302;-73
2023/04/22 04:53:59;;;;;;;;;;;;;;;20.52;59.29;100733.48;2260822;78;51667;-73
2023/04/22 04:57:02;;;;;;;;;;;;;;;20.51;59.36;100741.25;2244633;77;51803;-75
2023/04/22 05:00:03;;;;;;;;;;;;;;;20.49;59.51;100733.88;2223678;78;50321;-74
2023/04/22 05:03:05;;;;;;;;;;;;;;;20.44;59.77;100733.11;2209112;79;52093;-74
2023/04/22 05:06:07;;;;;;;;;;;;;;;20.45;59.49;100736.14;2230103;80;51490;-75
2023/04/22 05:09:09;;;;;;;;;;;;;;;20.49;59.36;100736.57;2224216;78;51684;-74
2023/04/22 05:12:10;;;;;;;;;;;;;;;20.54;59.15;100734.98;2210572;79;51556;-73
2023/04/22 05:15:12;;;;;;;;;;;;;;;20.57;58.93;100731.91;2206968;80;52240;-74
2023/04/22 05:18:13;;;;;;;;;;;;;;;20.59;58.85;100728.52;2222540;79;51456;-76
2023/04/22 05:21:15;;;;;;;;;;;;;;;20.63;58.70;100731.16;2240863;78;52629;-75
2023/04/22 05:24:17;;;;;;;;;;;;;;;20.65;58.63;100725.07;2206919;80;50711;-74
2023/04/22 05:27:18;;;;;;;;;;;;;;;20.71;58.40;100734.21;2207103;80;51472;-74
2023/04/22 05:30:20;;;;;;;;;;;;;;;20.75;58.42;100733.30;2230031;80;50673;-75
2023/04/22 05:33:22;;;;;;;;;;;;;;;20.77;58.80;100732.08;2183784;80;52342;-74
2023/04/22 05:36:23;;;;;;;;;;;;;;;20.85;58.48;100733.27;2206601;80;51523;-75
2023/04/22 05:39:25;;;;;;;;;;;;;;;20.90;58.51;100738.06;2231943;78;50302;-74
2023/04/22 05:42:27;;;;;;;;;;;;;;;20.90;58.47;100740.75;2208086;78;51566;-73
2023/04/22 05:45:28;;;;;;;;;;;;;;;20.92;58.26;100734.67;2240428;78;52572;-74
2023/04/22 05:48:30;;;;;;;;;;;;;;;20.91;58.31;100737.05;2262956;78;50319;-74
2023/04/22 05:51:31;;;;;;;;;;;;;;;20.95;58.17;100738.83;2264568;77;49837;-75
2023/04/22 05:54:33;;;;;;;;;;;;;;;20.93;58.51;100732.80;2264084;78;50205;-74
2023/04/22 05:57:35;;;;;;;;;;;;;;;20.93;58.65;100734.97;2264338;77;51246;-75
2023/04/22 06:00:36;;;;;;;;;;;;;;;20.99;58.67;100733.34;2264537;77;50402;-77
2023/04/22 06:03:38;;;;;;;;;;;;;;;21.04;58.50;100743.86;2264406;77;51182;-76
2023/04/22 06:06:40;;;;;;;;;;;;;;;21.02;58.28;100735.16;2264533;77;51420;-75
2023/04/22 06:09:41;;;;;;;;;;;;;;;21.04;58.31;100739.83;2208905;79;52511;-75
2023/04/22 06:12:43;;;;;;;;;;;;;;;21.07;58.28;100732.70;2207936;80;51532;-75
2023/04/22 06:15:45;;;;;;;;;;;;;;;21.15;58.12;100736.27;2229964;80;51535;-75
2023/04/22 06:18:46;;;;;;;;;;;;;;;21.19;58.00;100732.96;2207547;80;51417;-74
2023/04/22 06:21:48;;;;;;;;;;;;;;;21.23;58.03;100740.97;2230476;80;51417;-75
2023/04/22 06:24:49;;;;;;;;;;;;;;;21.23;57.96;100738.80;2207256;80;51666;-75
2023/04/22 06:27:51;;;;;;;;;;;;;;;21.24;57.93;100744.48;2211884;78;50233;-76
2023/04/22 06:30:53;;;;;;;;;;;;;;;21.24;57.34;100741.27;2236744;78;50412;-75
2023/04/22 06:33:54;;;;;;;;;;;;;;;21.18;53.49;100745.28;2207221;79;51565;-73
2023/04/22 06:36:56;;;;;;;;;;;;;;;21.12;54.01;100740.19;2207215;80;50509;-73
2023/04/22 06:39:58;;;;;;;;;;;;;;;21.09;54.67;100738.72;2212987;78;51329;-73
2023/04/22 06:42:59;;;;;;;;;;;;;;;21.10;55.05;100743.58;2246566;78;51476;-73
2023/04/22 06:46:01;;;;;;;;;;;;;;;21.17;54.89;100738.22;2230149;78;51604;-73
2023/04/22 06:49:03;;;;;;;;;;;;;;;21.18;54.57;100735.87;2231165;78;50736;-74
2023/04/22 06:52:05;;;;;;;;;;;;;;;21.18;54.06;100739.91;2234339;78;50292;-73
2023/04/22 06:55:06;;;;;;;;;;;;;;;21.15;53.16;100731.71;2234720;78;50710;-73
2023/04/22 06:58:08;;;;;;;;;;;;;;;21.16;52.17;100740.09;2186585;79;49507;-73
2023/04/22 07:01:10;;;;;;;;;;;;;;;21.17;51.36;100735.53;2220972;79;50652;-73
2023/04/22 07:04:11;;;;;;;;;;;;;;;21.16;50.78;100727.16;2197429;79;51474;-74
2023/04/22 07:07:13;;;;;;;;;;;;;;;21.14;50.35;100721.96;2210200;79;51572;-73
2023/04/22 07:10:14;;;;;;;;;;;;;;;21.14;50.22;100726.52;2224934;80;52478;-72
2023/04/22 07:13:16;;;;;;;;;;;;;;;21.08;49.67;100724.94;2224802;80;51609;-73
2023/04/22 07:16:18;;;;;;;;;;;;;;;21.06;49.41;100728.33;2224973;80;50430;-74
2023/04/22 07:19:20;;;;;;;;;;;;;;;21.06;49.01;100735.05;2224959;80;51613;-74
2023/04/22 07:22:22;;;;;;;;;;;;;;;21.03;48.83;100735.98;2200832;80;50146;-74
2023/04/22 07:25:23;;;;;;;;;;;;;;;21.02;48.46;100732.46;2208180;79;53343;-73
2023/04/22 07:28:25;;;;;;;;;;;;;;;21.00;48.23;100731.00;2231585;79;51479;-74
2023/04/22 07:31:26;;;;;;;;;;;;;;;20.97;47.80;100734.09;2229109;78;50826;-73
2023/04/22 07:34:28;;;;;;;;;;;;;;;20.97;47.61;100721.98;2239973;78;50204;-73
2023/04/22 07:37:30;;;;;;;;;;;;;;;20.95;47.20;100729.41;2266811;78;49931;-73
2023/04/22 07:40:31;;;;;;;;;;;;;;;20.90;47.18;100725.95;2266902;78;50258;-73
2023/04/22 07:43:33;;;;;;;;;;;;;;;20.90;47.26;100735.89;2243545;78;50616;-73
2023/04/22 07:46:34;;;;;;;;;;;;;;;20.88;47.05;100725.31;2243655;78;51450;-75
2023/04/22 07:49:36;;;;;;;;;;;;;;;20.87;47.13;100725.02;2266945;78;50342;-73
2023/04/22 07:52:37;;;;;;;;;;;;;;;20.87;47.67;100725.02;2266892;78;50292;-74
2023/04/22 07:55:39;;;;;;;;;;;;;;;20.84;48.31;100718.69;2243363;78;50256;-74
2023/04/22 07:58:41;;;;;;;;;;;;;;;20.86;48.73;100719.33;2255583;78;50648;-74
2023/04/22 08:01:44;;;;;;;;;;;;;;;20.85;49.16;100713.61;2231535;78;51588;-74
2023/04/22 08:04:45;;;;;;;;;;;;;;;20.87;49.46;100708.88;2243904;78;22423;-74
2023/04/22 08:07:47;;;;;;;;;;;;;;;20.85;49.20;100705.03;2266975;78;50230;-74
2023/04/22 08:10:49;;;;;;;;;;;;;;;20.80;49.43;100687.83;2219702;78;50897;-74
2023/04/22 08:13:50;;;;;;;;;;;;;;;20.81;49.73;100687.64;2243392;78;50658;-74
2023/04/22 08:16:52;;;;;;;;;;;;;;;20.81;50.06;100690.84;2266934;78;50636;-74
2023/04/22 08:19:53;;;;;;;;;;;;;;;20.79;50.32;100684.83;2266940;78;50311;-74
2023/04/22 08:22:59;;;;;;;;;;;;;;;20.79;50.51;100684.83;2243554;78;49134;-75
2023/04/22 08:25:58;;;;;;;;;;;;;;;20.78;50.71;100683.15;2243590;78;22534;-75
2023/04/22 08:29:00;;;;;;;;;;;;;;;20.77;50.87;100688.22;2250522;78;51443;-75
2023/04/22 08:32:02;;;;;;;;;;;;;;;20.74;51.03;100682.73;2234768;78;50773;-75
2023/04/22 08:35:03;;;;;;;;;;;;;;;20.74;51.19;100680.55;2207034;80;52503;-75
2023/04/22 08:38:05;;;;;;;;;;;;;;;20.72;51.32;100678.56;2207290;80;50215;-74
2023/04/22 08:41:06;;;;;;;;;;;;;;;20.71;51.47;100682.30;2229807;80;50263;-74
2023/04/22 08:44:08;;;;;;;;;;;;;;;20.69;51.57;100673.59;2229582;80;50322;-74
2023/04/22 08:47:10;;;;;;;;;;;;;;;20.67;51.68;100681.84;2184058;80;51144;-75
2023/04/22 08:50:11;;;;;;;;;;;;;;;20.65;51.83;100679.86;2229754;78;50302;-74
2023/04/22 08:53:13;;;;;;;;;;;;;;;20.64;51.90;100683.58;2207329;80;50620;-74
2023/04/22 08:56:15;;;;;;;;;;;;;;;20.61;52.04;100683.45;2229545;80;50256;-74
2023/04/22 08:59:16;;;;;;;;;;;;;;;20.61;52.14;100685.33;2216731;78;50851;-74
2023/04/22 09:02:21;;;;;;;;;;;;;;;20.60;52.17;100682.30;2265956;77;50655;-74
2023/04/22 09:05:23;;;;;;;;;;;;;;;20.57;52.30;100675.45;2237975;78;51492;-74
2023/04/22 09:08:25;;;;;;;;;;;;;;;20.56;52.40;100672.98;2277776;77;50853;-73
2023/04/22 09:11:27;;;;;;;;;;;;;;;20.55;52.44;100669.47;2259027;78;50420;-74
2023/04/22 09:14:29;;;;;;;;;;;;;;;20.53;52.54;100670.14;2240174;78;51483;-74
2023/04/22 09:17:31;;;;;;;;;;;;;;;20.52;52.63;100663.60;2266765;78;51530;-73
2023/04/22 09:20:33;;;;;;;;;;;;;;;20.51;52.68;100666.81;2266968;78;51572;-74
2023/04/22 09:23:36;;;;;;;;;;;;;;;20.48;52.79;100658.31;2219387;78;51201;-73
2023/04/22 09:26:39;;;;;;;;;;;;;;;20.46;52.87;100657.16;2265548;78;50167;-74
2023/04/22 09:29:41;;;;;;;;;;;;;;;20.45;52.95;100658.19;2249588;78;50312;-74
2023/04/22 09:32:43;;;;;;;;;;;;;;;20.44;53.01;100652.48;2235036;78;50289;-75
2023/04/22 09:35:49;;;;;;;;;;;;;;;20.41;53.11;100648.84;2219448;78;51131;-75
2023/04/22 09:38:52;;;;;;;;;;;;;;;20.40;53.20;100644.51;2242628;78;23186;-74
2023/04/22 09:41:55;;;;;;;;;;;;;;;20.39;53.27;100636.94;2267050;78;51574;-74
2023/04/22 09:44:57;;;;;;;;;;;;;;;20.37;53.36;100642.19;2267047;78;50314;-75
2023/04/22 09:48:03;;;;;;;;;;;;;;;20.35;53.40;100628.97;2219279;78;51296;-74
2023/04/22 09:51:04;;;;;;;;;;;;;;;20.34;53.48;100627.28;2266985;78;51416;-74
2023/04/22 09:54:11;;;;;;;;;;;;;;;20.34;53.49;100629.14;2243225;78;51685;-74
2023/04/22 09:57:14;;;;;;;;;;;;;;;20.33;53.59;100629.66;2266153;78;22741;-74
2023/04/22 10:00:14;;;;;;;;;;;;;;;20.33;53.61;100624.81;2256760;78;23165;-74
2023/04/22 10:03:15;;;;;;;;;;;;;;;20.30;53.74;100613.12;2233460;77;51602;-75
2023/04/22 10:06:17;;;;;;;;;;;;;;;20.30;53.90;100609.91;2229671;78;51523;-74
2023/04/22 10:09:19;;;;;;;;;;;;;;;20.30;53.80;100609.09;2229906;80;51402;-74
2023/04/22 10:12:20;;;;;;;;;;;;;;;20.31;54.04;100613.42;2230051;80;50395;-74
2023/04/22 10:15:22;;;;;;;;;;;;;;;20.33;53.86;100607.34;2231493;80;50765;-74
2023/04/22 10:18:25;;;;;;;;;;;;;;;20.33;54.05;100610.03;2231671;78;50351;-74
2023/04/22 10:21:27;;;;;;;;;;;;;;;20.34;53.91;100607.65;2230127;80;50708;-74
2023/04/22 10:24:28;;;;;;;;;;;;;;;20.32;54.20;100595.77;2207412;80;52523;-74
2023/04/22 10:27:30;;;;;;;;;;;;;;;20.31;54.19;100589.23;2230234;78;50346;-75
2023/04/22 10:30:33;;;;;;;;;;;;;;;20.30;54.33;100597.81;2245191;78;50424;-75
2023/04/22 10:33:35;;;;;;;;;;;;;;;20.29;54.38;100580.53;2266257;77;51569;-75
2023/04/22 10:36:40;;;;;;;;;;;;;;;20.27;54.48;100582.58;2241121;78;49568;-75
2023/04/22 10:39:42;;;;;;;;;;;;;;;20.26;54.52;100575.56;2264812;77;50678;-75
2023/04/22 10:42:47;;;;;;;;;;;;;;;20.27;54.54;100574.52;2292208;77;50643;-75
2023/04/22 10:45:49;;;;;;;;;;;;;;;20.27;54.54;100573.17;2289042;77;51505;-75
2023/04/22 10:48:51;;;;;;;;;;;;;;;20.25;54.63;100565.85;2215686;78;51256;-75
2023/04/22 10:51:54;;;;;;;;;;;;;;;20.26;54.63;100562.13;2264574;78;51459;-75
2023/04/22 10:54:56;;;;;;;;;;;;;;;20.25;54.58;100557.79;2259568;78;51502;-75
2023/04/22 10:57:58;;;;;;;;;;;;;;;20.23;54.59;100562.00;2284612;77;51551;-75
2023/04/22 11:01:01;;;;;;;;;;;;;;;20.23;54.58;100565.52;2190388;78;52326;-74
2023/04/22 11:04:07;;;;;;;;;;;;;;;20.21;54.56;100559.50;2222413;80;22449;-74
2023/04/22 11:07:16;;;;;;;;;;;;;;;20.21;54.63;100555.47;2216278;79;51505;-74
2023/04/22 11:10:31;;;;;;;;;;;;;;;20.19;54.74;100557.55;2240467;79;51615;-74
2023/04/22 11:13:33;;;;;;;;;;;;;;;20.19;54.72;100543.26;2178787;80;51210;-74
2023/04/22 11:16:34;;;;;;;;;;;;;;;20.20;54.70;100553.00;2222186;80;51542;-74
2023/04/22 11:19:36;;;;;;;;;;;;;;;20.18;54.77;100545.13;2222502;80;51553;-74
2023/04/22 11:22:39;;;;;;;;;;;;;;;20.18;54.75;100543.78;2222438;80;51416;-74
2023/04/22 11:25:40;;;;;;;;;;;;;;;20.18;54.77;100533.55;2222308;80;50281;-74
2023/04/22 11:28:45;;;;;;;;;;;;;;;20.16;54.84;100531.56;2178694;80;51173;-74
2023/04/22 11:31:48;;;;;;;;;;;;;;;20.16;54.80;100535.08;2234585;78;50664;-74
2023/04/22 11:34:48;;;;;;;;;;;;;;;;;;2225168;80;50330;-75
2023/04/22 11:37:54;;;;;;;;;;;;;;;20.16;54.85;100528.36;2203243;79;50760;-74
2023/04/22 11:40:57;;;;;;;;;;;;;;;;;;2223030;80;50595;-74
2023/04/22 11:43:58;;;;;;;;;;;;;;;;;;2184181;81;51145;-74
2023/04/22 11:47:00;;;;;;;;;;;;;;;20.16;54.92;100525.67;2221463;79;51689;-74
2023/04/22 11:50:08;;;;;;;;;;;;;;;20.16;54.92;100516.27;2240687;79;50326;-73
2023/04/22 11:53:16;;;;;;;;;;;;;;;20.16;54.93;100512.77;2222715;80;22872;-75
2023/04/22 11:56:18;;;;;;;;;;;;;;;20.15;54.94;100518.66;2222293;80;51505;-75
2023/04/22 11:59:19;;;;;;;;;;;;;;;20.15;54.98;100505.22;2178538;80;51226;-74
2023/04/22 12:02:21;;;;;;;;;;;;;;;20.15;54.98;100505.22;2236906;78;50026;-73
2023/04/22 12:05:24;;;;;;;;;;;;;;;20.15;54.98;100498.51;2238022;78;50399;-74
2023/04/22 12:08:27;;;;;;;;;;;;;;;20.14;55.02;100507.61;2257922;78;51463;-74
2023/04/22 12:11:29;;;;;;;;;;;;;;;20.16;55.04;100508.22;2233904;78;52377;-74
2023/04/22 12:14:30;;;;;;;;;;;;;;;;;;2237674;78;51451;-73
2023/04/22 12:17:32;;;;;;;;;;;;;;;20.16;55.04;100499.33;2259052;78;52351;-74
2023/04/22 12:20:34;;;;;;;;;;;;;;;20.16;55.08;100500.16;2240192;78;50343;-74
2023/04/22 12:23:47;;;;;;;;;;;;;;;20.16;55.09;100497.98;2233134;79;51694;-75
2023/04/22 12:26:49;;;;;;;;;;;;;;;20.16;55.15;100493.44;2240502;79;50780;-74
2023/04/22 12:29:52;;;;;;;;;;;;;;;20.15;55.13;100486.42;2228132;79;50034;-74
2023/04/22 12:32:54;;;;;;;;;;;;;;;20.14;55.21;100487.45;2221720;80;50272;-74
2023/04/22 12:35:55;;;;;;;;;;;;;;;20.13;55.36;100494.36;2224665;80;50423;-74
2023/04/22 12:38:57;;;;;;;;;;;;;;;20.15;55.40;100493.13;2222594;80;50244;-75
2023/04/22 12:41:58;;;;;;;;;;;;;;;20.19;55.10;100483.67;2224957;80;50332;-74
2023/04/22 12:45:00;;;;;;;;;;;;;;;20.21;55.08;100482.93;2224637;80;50658;-75
2023/04/22 12:48:02;;;;;;;;;;;;;;;20.22;55.08;100480.58;2200725;80;52561;-74
2023/04/22 12:51:03;;;;;;;;;;;;;;;20.20;55.29;100477.77;2222445;80;51374;-75
2023/04/22 12:54:05;;;;;;;;;;;;;;;20.20;55.29;100471.88;2222188;80;50339;-75
2023/04/22 12:57:07;;;;;;;;;;;;;;;20.21;55.29;100468.67;2224879;79;50334;-75
2023/04/22 13:00:15;;;;;;;;;;;;;;;20.21;55.43;100465.47;2222753;79;51489;-74
2023/04/22 13:03:14;;;;;;;;;;;;;;;20.20;55.58;100473.75;2220825;79;22310;-74
2023/04/22 13:06:16;;;;;;;;;;;;;;;20.20;55.66;100473.75;2275001;78;50633;-74
2023/04/22 13:09:18;;;;;;;;;;;;;;;20.19;55.72;100468.04;2275259;78;51586;-75
2023/04/22 13:12:19;;;;;;;;;;;;;;;20.18;55.79;100460.50;2233131;78;51010;-74
2023/04/22 13:15:21;;;;;;;;;;;;;;;20.19;55.70;100458.14;2274857;77;51518;-74
2023/04/22 13:18:22;;;;;;;;;;;;;;;20.21;55.67;100457.41;2275122;78;51606;-74
2023/04/22 13:21:24;;;;;;;;;;;;;;;20.20;55.84;100453.08;2264997;78;50641;-74
2023/04/22 13:24:26;;;;;;;;;;;;;;;20.20;55.75;100436.13;2229029;78;52322;-74
2023/04/22 13:27:28;;;;;;;;;;;;;;;20.20;55.77;100440.98;2253866;78;50718;-74
2023/04/22 13:30:29;;;;;;;;;;;;;;;20.21;55.86;100436.44;2256253;78;50691;-74
2023/04/22 13:33:31;;;;;;;;;;;;;;;20.20;55.90;100442.33;2248545;78;51534;-74
2023/04/22 13:36:32;;;;;;;;;;;;;;;20.21;55.99;100426.52;2224267;78;51755;-74
2023/04/22 13:39:34;;;;;;;;;;;;;;;20.21;56.02;100425.17;2248765;78;50624;-77
2023/04/22 13:42:36;;;;;;;;;;;;;;;20.19;56.10;100420.53;2248688;78;50302;-74
2023/04/22 13:45:38;;;;;;;;;;;;;;;20.20;56.13;100416.81;2281162;78;50671;-74
2023/04/22 13:48:40;;;;;;;;;;;;;;;20.21;56.22;100413.08;2248495;78;52869;-75
2023/04/22 13:51:42;;;;;;;;;;;;;;;20.20;56.30;100407.41;2248828;78;51561;-75
2023/04/22 13:54:43;;;;;;;;;;;;;;;20.21;56.30;100405.02;2248290;78;50353;-75
2023/04/22 13:57:45;;;;;;;;;;;;;;;20.21;56.38;100400.98;2281215;78;50350;-75
2023/04/22 14:00:46;;;;;;;;;;;;;;;20.22;56.41;100397.30;2211752;78;51265;-74
2023/04/22 14:03:48;;;;;;;;;;;;;;;20.23;56.40;100394.91;2278943;77;50342;-73
2023/04/22 14:06:50;;;;;;;;;;;;;;;20.25;56.40;100391.21;2275115;78;51594;-74
2023/04/22 14:09:52;;;;;;;;;;;;;;;20.25;56.53;100375.09;2289001;77;50776;-75
2023/04/22 14:12:53;;;;;;;;;;;;;;;20.28;56.54;100367.97;2227805;79;51164;-75
2023/04/22 14:15:55;;;;;;;;;;;;;;;20.29;56.49;100377.67;2288613;77;50631;-74
2023/04/22 14:18:57;;;;;;;;;;;;;;;20.30;56.54;100370.77;2288995;77;51369;-75
2023/04/22 14:21:58;;;;;;;;;;;;;;;20.32;56.48;100370.55;2260668;78;50333;-75
2023/04/22 14:25:00;;;;;;;;;;;;;;;20.31;56.55;100363.53;2288878;76;50695;-74
2023/04/22 14:28:02;;;;;;;;;;;;;;;20.32;56.57;100361.14;2286195;77;50033;-75
2023/04/22 14:31:03;;;;;;;;;;;;;;;20.32;56.64;100358.45;2233335;78;52566;-75
2023/04/22 14:34:05;;;;;;;;;;;;;;;20.33;56.65;100348.05;2278689;77;50663;-74
2023/04/22 14:37:07;;;;;;;;;;;;;;;20.35;56.69;100351.36;2278772;77;52671;-75
2023/04/22 14:40:08;;;;;;;;;;;;;;;20.35;56.74;100351.36;2279002;77;51446;-75
2023/04/22 14:43:10;;;;;;;;;;;;;;;20.37;56.65;100340.73;2278923;77;52032;-74
2023/04/22 14:46:11;;;;;;;;;;;;;;;20.37;56.83;100338.53;2288608;77;50252;-75
2023/04/22 14:49:13;;;;;;;;;;;;;;;20.39;56.72;100337.30;2227879;79;51578;-75
2023/04/22 14:52:15;;;;;;;;;;;;;;;20.39;56.81;100335.13;2256559;78;53456;-74
2023/04/22 14:55:17;;;;;;;;;;;;;;;20.41;56.81;100349.20;2288699;77;50643;-75
2023/04/22 14:58:18;;;;;;;;;;;;;;;20.41;56.85;100337.11;2281566;76;50282;-75
2023/04/22 15:01:21;;;;;;;;;;;;;;;20.41;56.93;100334.41;2230431;78;50928;-74
2023/04/22 15:04:23;;;;;;;;;;;;;;;20.43;56.93;100325.13;2258661;78;51522;-75
2023/04/22 15:07:25;;;;;;;;;;;;;;;20.43;57.05;100321.09;2240010;77;51542;-74
2023/04/22 15:10:26;;;;;;;;;;;;;;;20.46;56.99;100325.23;2266876;78;50730;-74
2023/04/22 15:13:28;;;;;;;;;;;;;;;20.45;56.99;100318.21;2243285;78;51608;-74
2023/04/22 15:16:30;;;;;;;;;;;;;;;20.47;57.03;100319.33;2266605;78;51498;-74
2023/04/22 15:19:31;;;;;;;;;;;;;;;20.44;57.03;100313.33;2266852;78;51544;-74
2023/04/22 15:22:33;;;;;;;;;;;;;;;20.45;57.11;100312.84;2266919;78;51534;-73
2023/04/22 15:25:34;;;;;;;;;;;;;;;20.45;57.18;100310.15;2243145;78;52362;-74
2023/04/22 15:28:36;;;;;;;;;;;;;;;20.47;57.11;100309.41;2233161;78;50279;-74
2023/04/22 15:31:37;;;;;;;;;;;;;;;20.48;57.10;100312.42;2253390;78;51501;-75
2023/04/22 15:34:39;;;;;;;;;;;;;;;20.49;57.10;100306.53;2263581;77;50269;-74
2023/04/22 15:37:41;;;;;;;;;;;;;;;20.48;57.13;100308.39;2240558;78;51603;-75